Nagaleader — VRDD5 — position and weather

sailwx.info

Track history (hours):
 
Tides and Currents Weather Stations Pressure Air Temp Water Temp Dewpoint Dewpoint Depression Visibility Wind Speed Wind Dir Waves Ship Positions

Nagaleader

Last reported at 2017-Jan-23 16:33 UTC. Time now 2017-Jan-24 01:02 UTC.
Position N 22°48' E 119°55'.

Length 113 m; draft 5.6 m.

Type: Cargo ship. MMSI: 477926700.

Date/timePositionNaut miles runAvg speedWind from/ knotsBaromVisibWave heightAir tempDewpointWater temp
2017-Jan-23 16:33N 22°48' E 119°55'1211.6
2017-Jan-23 15:33N 22°39' E 120°04'1111.3
2017-Jan-23 14:33N 22°33' E 120°14'5 0.5
2017-Jan-23 03:09N 22°33' E 120°20'4 7.2
2017-Jan-23 02:33N 22°32' E 120°15'1010.3
2017-Jan-23 01:33N 22°40' E 120°08'  
2017-Jan-20 09:33N 22°48' E 119°53'7 7.4
2017-Jan-20 08:33N 22°44' E 119°59'9 9.0
2017-Jan-20 07:33N 22°37' E 120°06'10 9.7
2017-Jan-20 06:33N 22°33' E 120°16'3 3.1
2017-Jan-20 05:33N 22°34' E 120°19'0 0.0
2017-Jan-20 04:33N 22°34' E 120°19'0 0.0
2017-Jan-20 03:33N 22°34' E 120°19'0 0.0
2017-Jan-20 02:33N 22°34' E 120°19'0 0.0
2017-Jan-20 01:33N 22°34' E 120°19'0 0.0
2017-Jan-20 00:33N 22°34' E 120°19'0 0.0
2017-Jan-19 23:33N 22°34' E 120°19'0 0.0
2017-Jan-19 22:33N 22°34' E 120°19'0 0.0
2017-Jan-19 21:33N 22°34' E 120°19'0 0.0
2017-Jan-19 20:33N 22°34' E 120°19'4 3.8
2017-Jan-19 19:33N 22°32' E 120°15'5 5.0
2017-Jan-19 18:33N 22°32' E 120°10'1 0.7
2017-Jan-19 17:33N 22°32' E 120°10'1 0.6
2017-Jan-19 16:33N 22°33' E 120°10'1 0.5
2017-Jan-19 15:33N 22°34' E 120°10'9 9.2
2017-Jan-19 14:33N 22°43' E 120°08'  
2017-Jan-17 06:27N 22°49' E 120°06'1011.8
2017-Jan-17 05:33N 22°39' E 120°10'9 9.5
2017-Jan-17 04:33N 22°33' E 120°18'2 0.1
2017-Jan-16 13:06N 22°33' E 120°20'3 4.7
2017-Jan-16 12:33N 22°33' E 120°17'7 7.4
2017-Jan-16 11:33N 22°37' E 120°10'1212.4
2017-Jan-16 10:33N 22°48' E 120°05'  
2017-Jan-13 18:33N 22°47' E 119°55'1010.3
2017-Jan-13 17:33N 22°40' E 120°03'  
Track history (hours):
 
Tides and Currents Weather Stations Pressure Air Temp Water Temp Dewpoint Dewpoint Depression Visibility Wind Speed Wind Dir Waves Ship Positions

Nagaleader

Last reported at 2017-Jan-23 16:33 UTC. Time now 2017-Jan-24 01:02 UTC.
Position N 22°48' E 119°55'.

Length 113 m; draft 5.6 m.

Type: Cargo ship. MMSI: 477926700.

Date/timePositionNaut miles runAvg speedWind from/ knotsBaromVisibWave heightAir tempDewpointWater temp
2017-Jan-23 16:33N 22°48' E 119°55'1211.6
2017-Jan-23 15:33N 22°39' E 120°04'1111.3
2017-Jan-23 14:33N 22°33' E 120°14'5 0.5
2017-Jan-23 03:09N 22°33' E 120°20'4 7.2
2017-Jan-23 02:33N 22°32' E 120°15'1010.3
2017-Jan-23 01:33N 22°40' E 120°08'  
2017-Jan-20 09:33N 22°48' E 119°53'7 7.4
2017-Jan-20 08:33N 22°44' E 119°59'9 9.0
2017-Jan-20 07:33N 22°37' E 120°06'10 9.7
2017-Jan-20 06:33N 22°33' E 120°16'3 3.1
2017-Jan-20 05:33N 22°34' E 120°19'0 0.0
2017-Jan-20 04:33N 22°34' E 120°19'0 0.0
2017-Jan-20 03:33N 22°34' E 120°19'0 0.0
2017-Jan-20 02:33N 22°34' E 120°19'0 0.0
2017-Jan-20 01:33N 22°34' E 120°19'0 0.0
2017-Jan-20 00:33N 22°34' E 120°19'0 0.0
2017-Jan-19 23:33N 22°34' E 120°19'0 0.0
2017-Jan-19 22:33N 22°34' E 120°19'0 0.0
2017-Jan-19 21:33N 22°34' E 120°19'0 0.0
2017-Jan-19 20:33N 22°34' E 120°19'4 3.8
2017-Jan-19 19:33N 22°32' E 120°15'5 5.0
2017-Jan-19 18:33N 22°32' E 120°10'1 0.7
2017-Jan-19 17:33N 22°32' E 120°10'1 0.6
2017-Jan-19 16:33N 22°33' E 120°10'1 0.5
2017-Jan-19 15:33N 22°34' E 120°10'9 9.2
2017-Jan-19 14:33N 22°43' E 120°08'  
2017-Jan-17 06:27N 22°49' E 120°06'1011.8
2017-Jan-17 05:33N 22°39' E 120°10'9 9.5
2017-Jan-17 04:33N 22°33' E 120°18'2 0.1
2017-Jan-16 13:06N 22°33' E 120°20'3 4.7
2017-Jan-16 12:33N 22°33' E 120°17'7 7.4
2017-Jan-16 11:33N 22°37' E 120°10'1212.4
2017-Jan-16 10:33N 22°48' E 120°05'  
2017-Jan-13 18:33N 22°47' E 119°55'1010.3
2017-Jan-13 17:33N 22°40' E 120°03'  

Dump ship's entire track history